Spicewood's Hourly Summary for Monday, July 9, 2018
Hour Temp
(f)
RH
(%)
Solar Rad.
(MJ/m2)
Rainfall
(in)
Wind
(mph)
7/9/2018 12:00 AM 77 89 0 0 0.77
7/9/2018 1:00 AM 76 89 0 0 1.76
7/9/2018 2:00 AM 75 90 0 0 1.1
7/9/2018 3:00 AM 74 91 0 0 1.18
7/9/2018 4:00 AM 73 95 0 0 0.78
7/9/2018 5:00 AM 72 97 0 0 0.49
7/9/2018 6:00 AM 73 97 0 0 0.4
7/9/2018 7:00 AM 73 97 0.02 0.25 0.4
7/9/2018 8:00 AM 73 99 0.09 0.07 2.06
7/9/2018 9:00 AM 72 100 0.07 0.06 0.85
7/9/2018 10:00 AM 73 100 0.17 0.05 0.66
7/9/2018 11:00 AM 75 99 1.21 0 1.37
7/9/2018 12:00 PM 80 93 1.67 0 1.84
7/9/2018 1:00 PM 83 75 2.44 0 2.79
7/9/2018 2:00 PM 83 67 1.49 0 4.63
7/9/2018 3:00 PM 81 82 0.9 0 6.77
7/9/2018 4:00 PM 78 84 0.53 0 4.05
7/9/2018 5:00 PM 78 84 0.7 0 3.7
7/9/2018 6:00 PM 78 83 0.55 0 4
7/9/2018 7:00 PM 78 84 0.36 0 3.37
7/9/2018 8:00 PM 77 89 0.13 0 1.95
7/9/2018 9:00 PM 76 92 0.02 0 2.44
7/9/2018 10:00 PM 75 94 0 0 1.67
7/9/2018 11:00 PM 75 96 0 0 2.06
Data Summary 76 90 10.35 0.43 2.13